createdAt,value
2019-05-30T00:00:11.405Z,100992.50
2019-05-30T00:05:00.879Z,100989.97
2019-05-30T00:15:12.525Z,100992.16
2019-05-30T00:20:14.180Z,100991.06
2019-05-30T00:25:15.838Z,101005.48
2019-05-30T00:30:24.519Z,100998.02
2019-05-30T00:35:20.974Z,101008.36
2019-05-30T00:40:22.676Z,101007.33
2019-05-30T00:45:24.258Z,101006.63
2019-05-30T00:50:25.903Z,101011.58
2019-05-30T00:55:27.520Z,101002.08
2019-05-30T01:00:42.972Z,101000.56
2019-05-30T01:05:32.522Z,101005.98
2019-05-30T01:10:34.211Z,101007.99
2019-05-30T01:15:35.761Z,101003.55
2019-05-30T01:20:37.307Z,101012.91
2019-05-30T01:25:39.014Z,101015.80
2019-05-30T01:30:40.805Z,101010.34
2019-05-30T01:35:42.491Z,101010.61
2019-05-30T01:40:44.063Z,101009.09
2019-05-30T01:45:45.715Z,101004.00
2019-05-30T01:50:47.309Z,101004.17
2019-05-30T01:55:49.010Z,101004.02
2019-05-30T02:00:50.553Z,101012.26
2019-05-30T02:05:52.135Z,101009.44
2019-05-30T02:10:53.684Z,101005.25
2019-05-30T02:15:55.203Z,101014.26
2019-05-30T02:20:56.881Z,101015.02
2019-05-30T02:25:58.411Z,101005.38
2019-05-30T02:31:00.523Z,101009.83
2019-05-30T02:36:04.101Z,101013.77
2019-05-30T02:41:07.742Z,101017.71
2019-05-30T02:46:10.583Z,101026.27
2019-05-30T02:51:12.986Z,101028.52
2019-05-30T02:56:14.547Z,101029.75
2019-05-30T03:01:16.220Z,101029.69
2019-05-30T03:06:17.779Z,101033.98
2019-05-30T03:11:19.423Z,101034.86
2019-05-30T03:16:21.103Z,101041.72
2019-05-30T03:21:22.764Z,101043.35
2019-05-30T03:26:24.437Z,101050.38
2019-05-30T03:31:29.328Z,101052.14
2019-05-30T03:36:31.710Z,101053.11
2019-05-30T03:41:33.563Z,101057.48
2019-05-30T03:46:37.991Z,101055.94
2019-05-30T03:51:41.023Z,101063.86
2019-05-30T03:56:46.854Z,101063.34
2019-05-30T04:02:06.435Z,101069.14
2019-05-30T04:07:15.814Z,101068.19
2019-05-30T04:12:26.158Z,101073.18
2019-05-30T04:17:27.699Z,101072.27
2019-05-30T04:22:29.270Z,101077.41
2019-05-30T04:27:30.833Z,101083.17
2019-05-30T04:32:32.493Z,101080.65
2019-05-30T04:37:34.032Z,101077.48
2019-05-30T04:42:35.651Z,101078.50
2019-05-30T04:47:37.193Z,101083.58
2019-05-30T04:52:38.757Z,101088.70
2019-05-30T04:57:40.292Z,101092.53
2019-05-30T05:02:41.849Z,101102.49
2019-05-30T05:07:43.371Z,101105.55
2019-05-30T05:12:44.908Z,101099.75
2019-05-30T05:17:46.447Z,101104.95
2019-05-30T05:22:47.983Z,101102.81
2019-05-30T05:27:49.522Z,101098.94
2019-05-30T05:32:51.169Z,101098.51
2019-05-30T05:37:52.726Z,101097.53
2019-05-30T05:42:54.278Z,101097.52
2019-05-30T05:47:55.831Z,101106.02
2019-05-30T05:52:57.409Z,101106.00
2019-05-30T05:57:58.949Z,101090.91
2019-05-30T06:03:00.499Z,101094.20
2019-05-30T06:08:02.152Z,101095.55
2019-05-30T06:13:03.794Z,101089.58
2019-05-30T06:18:05.429Z,101101.63
2019-05-30T06:23:06.970Z,101101.58
2019-05-30T06:28:08.618Z,101104.95
2019-05-30T06:33:10.168Z,101111.55
2019-05-30T06:38:11.727Z,101108.70
2019-05-30T06:43:13.289Z,101111.46
2019-05-30T06:48:14.821Z,101103.30
2019-05-30T06:53:16.389Z,101108.00
2019-05-30T06:58:18.217Z,101109.12
2019-05-30T07:03:19.881Z,101099.30
2019-05-30T07:08:22.654Z,101099.84
2019-05-30T07:13:25.253Z,101100.45
2019-05-30T07:18:27.547Z,101097.25
2019-05-30T07:23:30.441Z,101102.98
2019-05-30T07:28:32.105Z,101100.74
2019-05-30T07:33:34.559Z,101093.59
2019-05-30T07:38:37.089Z,101093.78
2019-05-30T07:43:38.728Z,101099.13
2019-05-30T07:48:40.286Z,101102.13
2019-05-30T07:53:41.839Z,101099.88
2019-05-30T07:58:43.594Z,101095.25
2019-05-30T08:03:45.158Z,101092.15
2019-05-30T08:08:46.746Z,101093.00
2019-05-30T08:13:48.422Z,101082.13
2019-05-30T08:18:49.985Z,101079.15
2019-05-30T08:23:51.544Z,101080.71
2019-05-30T08:28:53.415Z,101074.59
2019-05-30T08:33:54.955Z,101063.02
2019-05-30T08:38:56.639Z,101063.02
2019-05-30T08:43:58.242Z,101066.66
2019-05-30T08:49:01.836Z,101061.69
2019-05-30T08:54:03.490Z,101063.31
2019-05-30T08:59:06.542Z,101062.98
2019-05-30T09:04:08.213Z,101055.52
2019-05-30T09:09:09.942Z,101056.00
2019-05-30T09:14:11.626Z,101048.19
2019-05-30T09:19:13.222Z,101043.86
2019-05-30T09:24:14.880Z,101040.48
2019-05-30T09:29:16.527Z,101030.86
2019-05-30T09:34:18.180Z,101034.66
2019-05-30T09:39:19.731Z,101028.66
2019-05-30T09:44:21.276Z,101032.05
2019-05-30T09:49:22.947Z,101032.81
2019-05-30T09:54:24.487Z,101030.61
2019-05-30T09:59:26.105Z,101018.55
2019-05-30T10:04:27.678Z,101018.00
2019-05-30T10:09:29.335Z,101016.81
2019-05-30T10:14:30.925Z,101011.23
2019-05-30T10:19:32.597Z,101005.70
2019-05-30T10:24:34.166Z,101009.53
2019-05-30T10:29:35.817Z,101007.80
2019-05-30T10:34:37.367Z,100994.56
2019-05-30T10:39:38.928Z,100993.91
2019-05-30T10:44:40.483Z,101001.39
2019-05-30T10:49:42.032Z,100991.91
2019-05-30T10:54:43.594Z,100984.14
2019-05-30T10:59:45.946Z,100988.77
2019-05-30T11:04:48.975Z,100976.83
2019-05-30T11:09:57.714Z,100972.68
2019-05-30T11:14:59.274Z,100976.44
2019-05-30T11:20:00.871Z,100968.35
2019-05-30T11:25:02.829Z,100955.92
2019-05-30T11:30:04.571Z,100952.03
2019-05-30T11:35:06.223Z,100948.05
2019-05-30T11:40:08.194Z,100942.98
2019-05-30T11:45:10.137Z,100940.02
2019-05-30T11:50:13.010Z,100930.01
2019-05-30T11:55:14.986Z,100918.23
2019-05-30T12:00:18.530Z,100918.23
2019-05-30T12:05:20.404Z,100918.21
2019-05-30T12:10:22.752Z,100919.71
2019-05-30T12:15:24.610Z,100908.12
2019-05-30T12:20:26.764Z,100903.02
2019-05-30T12:25:28.309Z,100904.45
2019-05-30T12:30:29.999Z,100889.06
2019-05-30T12:35:31.637Z,100879.90
2019-05-30T12:40:33.190Z,100875.66
2019-05-30T12:45:34.731Z,100866.92
2019-05-30T12:50:36.399Z,100868.45
2019-05-30T12:55:37.958Z,100852.08
2019-05-30T13:00:42.332Z,100851.48
2019-05-30T13:05:43.893Z,100863.89
2019-05-30T13:10:45.463Z,100852.20
2019-05-30T13:15:47.032Z,100850.82
2019-05-30T13:20:48.623Z,100858.15
2019-05-30T13:25:50.153Z,100848.88
2019-05-30T13:30:51.842Z,100844.48
2019-05-30T13:35:53.421Z,100846.57
2019-05-30T13:40:54.990Z,100845.45
2019-05-30T13:45:56.561Z,100838.97
2019-05-30T13:50:58.636Z,100838.62
2019-05-30T13:56:01.432Z,100828.22
2019-05-30T14:01:07.797Z,100826.78
2019-05-30T14:06:06.774Z,100817.14
2019-05-30T14:11:08.731Z,100825.73
2019-05-30T14:16:11.094Z,100819.16
2019-05-30T14:21:12.779Z,100808.74
2019-05-30T14:26:14.339Z,100823.68
2019-05-30T14:31:15.924Z,100823.88
2019-05-30T14:36:17.494Z,100816.91
2019-05-30T14:41:19.052Z,100830.30
2019-05-30T14:46:20.613Z,100816.89
2019-05-30T14:51:22.189Z,100829.27
2019-05-30T14:56:23.750Z,100825.36
2019-05-30T15:01:25.433Z,100815.52
2019-05-30T15:06:27.025Z,100817.03
2019-05-30T15:11:28.606Z,100816.77
2019-05-30T15:16:30.197Z,100803.89
2019-05-30T15:21:31.841Z,100793.55
2019-05-30T15:26:33.613Z,100786.53
2019-05-30T15:31:35.192Z,100794.38
2019-05-30T15:36:36.782Z,100790.00
2019-05-30T15:41:38.466Z,100792.31
2019-05-30T15:46:40.208Z,100807.41
2019-05-30T15:51:41.775Z,100792.41
2019-05-30T15:56:43.547Z,100798.66
2019-05-30T16:01:45.110Z,100801.09
2019-05-30T16:06:46.697Z,100798.83
2019-05-30T16:11:48.391Z,100792.76
2019-05-30T16:16:49.953Z,100783.38
2019-05-30T16:21:51.519Z,100784.48
2019-05-30T16:26:53.219Z,100784.52
2019-05-30T16:31:54.837Z,100783.89
2019-05-30T16:36:56.431Z,100782.84
2019-05-30T16:41:58.068Z,100788.41
2019-05-30T16:46:59.771Z,100786.86
2019-05-30T16:52:01.343Z,100789.76
2019-05-30T16:57:02.918Z,100787.05
2019-05-30T17:02:04.618Z,100787.85
2019-05-30T17:07:08.605Z,100795.99
2019-05-30T17:12:10.436Z,100784.20
2019-05-30T17:17:12.053Z,100787.14
2019-05-30T17:22:13.620Z,100795.59
2019-05-30T17:27:15.170Z,100796.66
2019-05-30T17:32:17.780Z,100799.89
2019-05-30T17:37:20.263Z,100806.38
2019-05-30T17:42:22.772Z,100798.56
2019-05-30T17:47:25.479Z,100799.80
2019-05-30T18:19:46.788Z,100824.23
2019-05-30T18:24:48.365Z,100822.05
2019-05-30T18:29:49.922Z,100830.16
2019-05-30T18:34:51.506Z,100821.94
2019-05-30T18:39:53.190Z,100827.84
2019-05-30T18:44:54.852Z,100838.52
2019-05-30T18:49:56.528Z,100848.16
2019-05-30T18:54:58.247Z,100845.36
2019-05-30T18:59:59.848Z,100839.09
2019-05-30T19:10:19.219Z,100842.98
2019-05-30T19:15:20.904Z,100838.92
2019-05-30T19:20:23.003Z,100844.66
2019-05-30T19:25:24.598Z,100852.92
2019-05-30T19:30:26.471Z,100861.20
2019-05-30T19:35:28.963Z,100865.88
2019-05-30T19:40:31.621Z,100868.16
2019-05-30T19:45:34.088Z,100877.03
2019-05-30T19:50:36.851Z,100884.09
2019-05-30T19:55:39.426Z,100886.12
2019-05-30T20:00:57.255Z,100872.81
2019-05-30T20:05:44.685Z,100876.70
2019-05-30T20:10:46.392Z,100890.30
2019-05-30T20:15:48.884Z,100899.62
2019-05-30T20:20:57.599Z,100900.63
2019-05-30T20:25:54.077Z,100895.19
2019-05-30T20:30:55.636Z,100909.47
2019-05-30T20:35:57.260Z,100911.63
2019-05-30T20:40:59.028Z,100920.62
2019-05-30T20:46:00.604Z,100919.95
2019-05-30T20:51:02.184Z,100920.30
2019-05-30T20:56:03.869Z,100924.91
2019-05-30T21:01:05.530Z,100932.59
2019-05-30T21:06:07.190Z,100925.94
2019-05-30T21:11:09.805Z,100931.66
2019-05-30T21:16:12.527Z,100931.98
2019-05-30T21:21:14.077Z,100922.91
2019-05-30T21:26:15.725Z,100917.84
2019-05-30T21:31:17.293Z,100918.73
2019-05-30T21:36:19.017Z,100924.61
2019-05-30T21:41:20.546Z,100927.84
2019-05-30T21:46:22.129Z,100922.94
2019-05-30T21:51:23.691Z,100923.73
2019-05-30T21:56:25.335Z,100931.26
2019-05-30T22:01:30.370Z,100930.23
2019-05-30T22:06:32.141Z,100924.63
2019-05-30T22:11:33.833Z,100929.28
2019-05-30T22:16:35.517Z,100932.27
2019-05-30T22:21:37.200Z,100928.95
2019-05-30T22:26:38.776Z,100927.67
2019-05-30T22:31:40.456Z,100936.38
2019-05-30T22:36:42.725Z,100937.24
2019-05-30T22:41:44.502Z,100936.72
2019-05-30T22:46:46.208Z,100932.53
2019-05-30T22:51:48.968Z,100934.38
2019-05-30T22:56:51.533Z,100921.40
2019-05-30T23:01:53.675Z,100925.52
2019-05-30T23:06:56.468Z,100923.98
2019-05-30T23:11:58.217Z,100926.80
2019-05-30T23:16:59.774Z,100924.27
2019-05-30T23:22:01.443Z,100931.56
2019-05-30T23:27:03.317Z,100929.39
2019-05-30T23:32:04.876Z,100933.38
2019-05-30T23:37:06.427Z,100931.73
2019-05-30T23:42:08.007Z,100927.45
2019-05-30T23:47:09.737Z,100926.80
2019-05-30T23:52:11.381Z,100918.14
2019-05-30T23:57:12.978Z,100920.08
